Terminal Aerodrome Forecast
Issued by NWS Chicago, IL

Home | Current Version | Previous Version | Text Only | Print | Product List | Glossary Off
Versions: 1 2 3 4 5 6 7 8 9 10 11 12 13 14 15 16 17 18 19 20 21 22 23 24 25 26 27 28 29 30 31 32 33 34 35

000
FTUS43 KLOT 031100
TAFRFD
TAF
KRFD 031128Z 0312/0412 15014KT 1 1/2SM -SN BR OVC010
      TEMPO 0312/0314 1/2SM SN FG OVC007
     FM031400 16013KT 1SM -PLSN BR OVC007
     FM031600 18014KT 2SM -FZRAPL BR OVC004
     FM031800 22014G21KT 5SM -DZ BR OVC006
     FM032100 26014G22KT P6SM OVC015
     FM040000 29014G21KT P6SM OVC025
     FM040700 32012KT P6SM SCT025 SCT150=

USA.gov is the U.S. government's official web portal to all federal, state and local government web resources and services.